16/03/05 - 20h:31mDenunciar

Dassault Mirage III RS

METAR SBPB 162300Z 06008KT CAVOK 28/25 Q1010=



Obs.: CAVOK -> "Ceiling and Visibility OK" ou "Teto e Visibilidade Ilimitados".

Comentários (0)

Fotos postadas a mais de 15 dias não podem receber comentários.